createdAt,value
2018-04-17T00:00:21.205Z,6.90
2018-04-17T00:02:49.011Z,7.07
2018-04-17T00:05:17.383Z,7.00
2018-04-17T00:07:44.948Z,6.77
2018-04-17T00:10:12.543Z,6.90
2018-04-17T00:12:40.122Z,6.80
2018-04-17T00:15:07.671Z,7.13
2018-04-17T00:17:35.260Z,6.87
2018-04-17T00:20:02.816Z,7.23
2018-04-17T00:22:30.465Z,6.90
2018-04-17T00:24:58.017Z,6.20
2018-04-17T00:27:25.584Z,6.37
2018-04-17T00:29:53.135Z,6.43
2018-04-17T00:32:20.777Z,6.23
2018-04-17T00:34:48.327Z,6.80
2018-04-17T00:37:16.100Z,6.47
2018-04-17T00:39:43.660Z,6.00
2018-04-17T00:42:11.219Z,6.40
2018-04-17T00:44:38.787Z,6.47
2018-04-17T00:47:06.522Z,5.80
2018-04-17T00:49:34.867Z,6.60
2018-04-17T00:52:02.478Z,6.20
2018-04-17T00:54:30.835Z,6.17
2018-04-17T00:56:58.382Z,5.70
2018-04-17T00:59:25.948Z,6.70
2018-04-17T01:01:53.557Z,6.97
2018-04-17T01:04:21.145Z,6.43
2018-04-17T01:06:48.712Z,6.30
2018-04-17T01:09:17.811Z,6.70
2018-04-17T01:11:45.368Z,6.97
2018-04-17T01:14:12.943Z,6.70
2018-04-17T01:16:40.503Z,6.20
2018-04-17T01:19:08.072Z,5.97
2018-04-17T01:21:35.639Z,7.17
2018-04-17T01:24:03.969Z,7.03
2018-04-17T01:26:31.516Z,6.27
2018-04-17T01:28:59.103Z,6.70
2018-04-17T01:31:26.656Z,7.47
2018-04-17T01:33:54.229Z,6.60
2018-04-17T01:36:21.771Z,6.77
2018-04-17T01:38:49.342Z,6.20
2018-04-17T01:41:16.875Z,7.00
2018-04-17T01:43:44.455Z,6.47
2018-04-17T01:46:12.029Z,5.90
2018-04-17T01:48:39.620Z,6.40
2018-04-17T01:51:07.953Z,6.17
2018-04-17T01:53:35.524Z,6.27
2018-04-17T01:56:03.112Z,6.00
2018-04-17T01:58:31.434Z,6.17
2018-04-17T02:00:59.000Z,6.10
2018-04-17T02:03:26.612Z,6.90
2018-04-17T02:05:54.932Z,6.30
2018-04-17T02:08:22.516Z,5.70
2018-04-17T02:10:50.088Z,6.17
2018-04-17T02:13:17.707Z,6.10
2018-04-17T02:15:45.281Z,6.47
2018-04-17T02:18:12.874Z,6.87
2018-04-17T02:20:40.451Z,6.97
2018-04-17T02:23:08.759Z,6.33
2018-04-17T02:25:36.338Z,6.77
2018-04-17T02:28:03.959Z,6.90
2018-04-17T02:30:32.350Z,6.80
2018-04-17T02:33:00.712Z,6.93
2018-04-17T02:35:29.048Z,6.03
2018-04-17T02:37:56.752Z,6.60
2018-04-17T02:40:25.108Z,6.53
2018-04-17T02:42:52.681Z,6.83
2018-04-17T02:45:20.284Z,6.57
2018-04-17T02:47:47.845Z,7.13
2018-04-17T02:50:15.392Z,7.03
2018-04-17T02:52:42.973Z,7.37
2018-04-17T02:55:10.627Z,6.73
2018-04-17T02:57:38.188Z,7.13
2018-04-17T03:00:05.752Z,6.80
2018-04-17T03:02:33.296Z,6.87
2018-04-17T03:05:00.847Z,6.47
2018-04-17T03:07:28.429Z,6.47
2018-04-17T03:09:56.899Z,6.37
2018-04-17T03:12:24.447Z,7.17
2018-04-17T03:14:52.006Z,6.13
2018-04-17T03:17:19.587Z,7.60
2018-04-17T03:19:47.141Z,6.67
2018-04-17T03:22:14.688Z,7.03
2018-04-17T03:24:42.263Z,7.97
2018-04-17T03:27:09.817Z,7.17
2018-04-17T03:29:37.402Z,7.33
2018-04-17T03:32:04.944Z,7.03
2018-04-17T03:34:32.756Z,8.07
2018-04-17T03:37:00.333Z,7.97
2018-04-17T03:39:27.902Z,7.23
2018-04-17T03:41:56.222Z,7.57
2018-04-17T03:44:23.768Z,7.60
2018-04-17T03:46:51.332Z,7.27
2018-04-17T03:49:18.916Z,7.30
2018-04-17T03:51:46.485Z,7.27
2018-04-17T03:54:14.803Z,8.20
2018-04-17T03:56:42.380Z,8.57
2018-04-17T03:59:09.937Z,8.97
2018-04-17T04:01:37.497Z,9.17
2018-04-17T04:04:05.052Z,8.90
2018-04-17T04:06:32.749Z,8.70
2018-04-17T04:09:00.286Z,9.37
2018-04-17T04:11:27.862Z,9.47
2018-04-17T04:13:55.428Z,9.60
2018-04-17T04:16:34.906Z,9.60
2018-04-17T04:19:15.141Z,9.57
2018-04-17T04:21:54.533Z,8.83
2018-04-17T04:24:33.979Z,8.77
2018-04-17T04:27:01.584Z,9.20
2018-04-17T04:29:29.140Z,9.80
2018-04-17T04:31:56.698Z,9.20
2018-04-17T04:34:24.248Z,9.03
2018-04-17T04:36:51.856Z,9.90
2018-04-17T04:39:19.544Z,9.47
2018-04-17T04:41:47.107Z,10.73
2018-04-17T04:44:14.776Z,9.70
2018-04-17T04:46:42.349Z,10.60
2018-04-17T04:49:09.908Z,10.00
2018-04-17T04:51:37.476Z,9.63
2018-04-17T04:54:05.084Z,9.87
2018-04-17T04:56:32.628Z,9.40
2018-04-17T04:59:00.945Z,10.03
2018-04-17T05:01:28.522Z,10.93
2018-04-17T05:03:56.076Z,10.63
2018-04-17T05:06:23.623Z,9.87
2018-04-17T05:08:51.224Z,10.53
2018-04-17T05:11:18.790Z,11.27
2018-04-17T05:13:46.369Z,10.97
2018-04-17T05:16:14.676Z,11.17
2018-04-17T05:18:42.247Z,11.17
2018-04-17T05:21:09.807Z,9.77
2018-04-17T05:23:37.367Z,11.13
2018-04-17T05:26:04.913Z,9.97
2018-04-17T05:28:32.489Z,9.57
2018-04-17T05:31:00.044Z,10.90
2018-04-17T05:33:27.604Z,9.87
2018-04-17T05:35:55.157Z,10.23
2018-04-17T05:38:22.724Z,10.40
2018-04-17T05:40:50.284Z,9.73
2018-04-17T05:43:17.840Z,9.90
2018-04-17T05:45:45.440Z,9.13
2018-04-17T05:48:13.014Z,9.50
2018-04-17T05:50:40.608Z,9.77
2018-04-17T05:53:08.168Z,9.13
2018-04-17T05:55:35.734Z,8.80
2018-04-17T05:58:03.283Z,10.07
2018-04-17T06:00:30.847Z,9.57
2018-04-17T06:02:58.404Z,10.63
2018-04-17T06:05:25.984Z,9.47
2018-04-17T06:07:53.663Z,9.37
2018-04-17T06:10:21.319Z,9.70
2018-04-17T06:12:48.883Z,9.73
2018-04-17T06:15:16.581Z,10.13
2018-04-17T06:17:44.187Z,10.20
2018-04-17T06:20:11.752Z,10.10
2018-04-17T06:22:39.347Z,10.07
2018-04-17T06:25:06.973Z,8.73
2018-04-17T06:27:34.551Z,18.63
2018-04-17T06:30:02.127Z,12.23
2018-04-17T06:32:29.889Z,10.50
2018-04-17T06:34:57.530Z,9.63
2018-04-17T06:37:25.096Z,9.37
2018-04-17T06:39:52.651Z,10.17
2018-04-17T06:42:20.257Z,8.67
2018-04-17T06:44:47.946Z,9.03
2018-04-17T06:47:15.525Z,9.47
2018-04-17T06:49:43.080Z,9.53
2018-04-17T06:52:10.670Z,8.83
2018-04-17T06:54:38.271Z,8.87
2018-04-17T06:57:06.596Z,8.77
2018-04-17T06:59:34.157Z,8.83
2018-04-17T07:02:01.721Z,8.70
2018-04-17T07:04:29.341Z,8.67
2018-04-17T07:06:56.924Z,8.67
2018-04-17T07:09:24.504Z,8.43
2018-04-17T07:11:52.062Z,9.27
2018-04-17T07:14:19.632Z,8.53
2018-04-17T07:16:47.252Z,9.37
2018-04-17T07:19:14.925Z,8.27
2018-04-17T07:21:42.500Z,7.97
2018-04-17T07:24:10.267Z,8.30
2018-04-17T07:26:37.864Z,7.93
2018-04-17T07:29:05.481Z,8.43
2018-04-17T07:31:33.038Z,9.03
2018-04-17T07:34:00.621Z,8.37
2018-04-17T07:36:28.161Z,8.10
2018-04-17T07:38:55.745Z,9.30
2018-04-17T07:41:23.307Z,8.63
2018-04-17T07:43:50.862Z,8.60
2018-04-17T07:46:18.544Z,9.87
2018-04-17T07:48:49.998Z,9.17
2018-04-17T07:51:17.533Z,8.87
2018-04-17T07:53:45.103Z,8.57
2018-04-17T07:56:12.663Z,10.40
2018-04-17T07:58:41.069Z,9.57
2018-04-17T08:01:09.385Z,9.40
2018-04-17T08:03:36.944Z,9.47
2018-04-17T08:06:04.516Z,10.47
2018-04-17T08:08:32.064Z,9.67
2018-04-17T08:10:59.758Z,8.50
2018-04-17T08:13:27.307Z,9.33
2018-04-17T08:15:54.887Z,9.73
2018-04-17T08:18:22.442Z,10.30
2018-04-17T08:20:50.021Z,9.37
2018-04-17T08:23:17.576Z,9.83
2018-04-17T08:25:45.303Z,9.70
2018-04-17T08:28:12.862Z,10.40
2018-04-17T08:30:40.421Z,8.43
2018-04-17T08:33:07.977Z,8.70
2018-04-17T08:35:35.548Z,9.07
2018-04-17T08:38:03.116Z,9.40
2018-04-17T08:40:30.688Z,9.47
2018-04-17T08:42:58.228Z,9.10
2018-04-17T08:45:25.799Z,9.73
2018-04-17T08:47:53.364Z,10.00
2018-04-17T08:50:20.937Z,9.97
2018-04-17T08:52:50.006Z,9.60
2018-04-17T08:55:17.588Z,9.07
2018-04-17T08:57:45.175Z,8.87
2018-04-17T09:00:13.489Z,9.90
2018-04-17T09:02:41.053Z,9.77
2018-04-17T09:05:08.609Z,9.97
2018-04-17T09:07:36.189Z,9.67
2018-04-17T09:10:03.732Z,8.97
2018-04-17T09:12:31.311Z,8.83
2018-04-17T09:14:58.868Z,8.67
2018-04-17T09:17:26.439Z,8.20
2018-04-17T09:19:53.999Z,8.10
2018-04-17T09:22:22.180Z,9.03
2018-04-17T09:24:49.731Z,8.50
2018-04-17T09:27:17.456Z,9.57
2018-04-17T09:29:45.028Z,10.17
2018-04-17T09:32:12.605Z,9.63
2018-04-17T09:34:40.330Z,9.17
2018-04-17T09:37:07.879Z,9.77
2018-04-17T09:39:35.454Z,9.50
2018-04-17T09:42:02.999Z,9.23
2018-04-17T09:44:31.484Z,9.80
2018-04-17T09:46:59.051Z,9.53
2018-04-17T09:49:26.612Z,9.10
2018-04-17T09:51:54.161Z,9.37
2018-04-17T09:54:21.736Z,9.97
2018-04-17T09:56:49.291Z,9.47
2018-04-17T09:59:16.886Z,8.40
2018-04-17T10:01:44.470Z,8.23
2018-04-17T10:04:12.047Z,8.03
2018-04-17T10:06:39.620Z,8.67
2018-04-17T10:09:07.423Z,8.57
2018-04-17T10:11:34.978Z,8.70
2018-04-17T10:14:02.652Z,9.03
2018-04-17T10:16:30.234Z,9.13
2018-04-17T10:18:57.811Z,9.60
2018-04-17T10:21:25.413Z,10.10
2018-04-17T10:23:53.000Z,10.40
2018-04-17T10:26:20.576Z,11.77
2018-04-17T10:28:48.771Z,12.73
2018-04-17T10:31:17.732Z,13.67
2018-04-17T10:33:45.307Z,12.77
2018-04-17T10:36:12.877Z,11.93
2018-04-17T10:38:40.566Z,12.13
2018-04-17T10:41:09.045Z,14.17
2018-04-17T10:43:36.830Z,11.57
2018-04-17T10:46:04.408Z,10.37
2018-04-17T10:48:32.759Z,10.93
2018-04-17T10:51:00.312Z,11.03
2018-04-17T10:53:27.886Z,11.20
2018-04-17T10:55:55.441Z,4.70
2018-04-17T10:58:23.060Z,3.67
2018-04-17T11:00:50.639Z,3.80
2018-04-17T11:03:19.016Z,4.40
2018-04-17T11:05:46.694Z,4.90
2018-04-17T11:08:14.452Z,5.20
2018-04-17T11:10:43.297Z,5.50
2018-04-17T11:13:10.888Z,6.07
2018-04-17T11:15:39.212Z,7.00
2018-04-17T11:18:06.792Z,6.80
2018-04-17T11:20:34.615Z,5.80
2018-04-17T11:23:02.224Z,8.77
2018-04-17T11:25:29.779Z,8.87
2018-04-17T11:27:57.360Z,8.23
2018-04-17T11:30:24.923Z,8.20
2018-04-17T11:32:52.635Z,7.83
2018-04-17T11:35:20.220Z,7.57
2018-04-17T11:37:48.416Z,7.47
2018-04-17T11:40:16.025Z,7.73
2018-04-17T11:42:43.589Z,8.17
2018-04-17T11:45:11.148Z,8.00
2018-04-17T11:47:38.720Z,8.40
2018-04-17T11:50:06.296Z,9.07
2018-04-17T11:52:33.896Z,7.70
2018-04-17T11:55:02.235Z,8.13
2018-04-17T11:57:29.805Z,7.93
2018-04-17T11:59:57.372Z,7.83
2018-04-17T12:02:24.985Z,8.43
2018-04-17T12:04:52.539Z,8.60
2018-04-17T12:07:20.088Z,7.27
2018-04-17T12:09:48.396Z,8.00
2018-04-17T12:12:15.976Z,6.87
2018-04-17T12:14:43.544Z,7.93
2018-04-17T12:17:11.114Z,9.33
2018-04-17T12:19:38.661Z,8.93
2018-04-17T12:22:06.370Z,7.70
2018-04-17T12:24:33.937Z,7.40
2018-04-17T12:27:01.512Z,8.13
2018-04-17T12:29:29.040Z,8.67
2018-04-17T12:31:57.436Z,9.30
2018-04-17T12:34:24.971Z,8.40
2018-04-17T12:36:53.318Z,7.40
2018-04-17T12:39:20.915Z,8.00
2018-04-17T12:41:48.484Z,8.23
2018-04-17T12:44:16.808Z,8.47
2018-04-17T12:46:44.387Z,9.57
2018-04-17T12:49:12.707Z,7.90
2018-04-17T12:51:40.256Z,9.67
2018-04-17T12:54:08.740Z,10.00
2018-04-17T12:56:36.304Z,8.80
2018-04-17T12:59:03.972Z,8.20
2018-04-17T13:01:31.523Z,8.90
2018-04-17T13:03:59.162Z,9.33
2018-04-17T13:06:27.556Z,8.77
2018-04-17T13:08:56.065Z,9.50
2018-04-17T13:11:23.689Z,10.60
2018-04-17T13:13:51.263Z,9.03
2018-04-17T13:16:18.954Z,8.20
2018-04-17T13:18:46.512Z,7.67
2018-04-17T13:21:14.068Z,8.93
2018-04-17T13:23:41.630Z,8.93
2018-04-17T13:26:09.371Z,10.00
2018-04-17T13:28:37.709Z,10.20
2018-04-17T13:31:05.412Z,10.37
2018-04-17T13:33:33.731Z,9.00
2018-04-17T13:36:01.312Z,10.70
2018-04-17T13:38:28.901Z,9.00
2018-04-17T13:40:56.471Z,8.67
2018-04-17T13:43:24.799Z,9.03
2018-04-17T13:45:52.382Z,9.60
2018-04-17T13:48:19.935Z,9.80
2018-04-17T13:50:47.529Z,9.03
2018-04-17T13:53:15.892Z,9.53
2018-04-17T13:55:44.268Z,10.37
2018-04-17T13:58:11.995Z,9.40
2018-04-17T14:00:39.539Z,9.10
2018-04-17T14:03:07.115Z,9.47
2018-04-17T14:05:34.700Z,9.87
2018-04-17T14:08:02.256Z,8.80
2018-04-17T14:10:29.801Z,8.60
2018-04-17T14:12:57.505Z,8.97
2018-04-17T14:15:25.849Z,7.47
2018-04-17T14:17:53.475Z,7.23
2018-04-17T14:20:21.096Z,7.00
2018-04-17T14:22:49.436Z,7.57
2018-04-17T14:25:17.796Z,8.00
2018-04-17T14:27:45.380Z,8.30
2018-04-17T14:30:12.981Z,7.37
2018-04-17T14:32:40.588Z,7.53
2018-04-17T14:35:08.167Z,7.80
2018-04-17T14:37:35.778Z,7.77
2018-04-17T14:40:04.113Z,7.50
2018-04-17T14:42:31.700Z,7.93
2018-04-17T14:45:00.117Z,6.83
2018-04-17T14:47:27.679Z,7.37
2018-04-17T14:49:55.269Z,8.03
2018-04-17T14:52:22.900Z,6.67
2018-04-17T14:54:50.474Z,6.17
2018-04-17T14:57:18.031Z,7.80
2018-04-17T14:59:45.608Z,6.97
2018-04-17T15:02:13.356Z,8.33
2018-04-17T15:04:40.938Z,8.50
2018-04-17T15:07:08.517Z,7.90
2018-04-17T15:09:36.108Z,7.10
2018-04-17T15:12:03.653Z,6.60
2018-04-17T15:14:32.000Z,7.33
2018-04-17T15:16:59.596Z,7.17
2018-04-17T15:19:28.740Z,7.07
2018-04-17T15:21:56.316Z,8.10
2018-04-17T15:24:24.081Z,7.53
2018-04-17T15:26:51.653Z,6.97
2018-04-17T15:29:19.267Z,6.60
2018-04-17T15:31:46.835Z,6.20
2018-04-17T15:34:14.390Z,5.40
2018-04-17T15:36:41.988Z,5.50
2018-04-17T15:39:09.553Z,5.87
2018-04-17T15:41:37.211Z,5.40
2018-04-17T15:44:04.761Z,5.57
2018-04-17T15:46:32.338Z,5.97
2018-04-17T15:49:00.049Z,5.93
2018-04-17T15:51:27.629Z,5.63
2018-04-17T15:53:55.188Z,5.67
2018-04-17T15:56:22.801Z,5.30
2018-04-17T15:58:50.366Z,4.70
2018-04-17T16:01:19.607Z,6.07
2018-04-17T16:03:47.238Z,5.70
2018-04-17T16:06:14.755Z,7.37
2018-04-17T16:08:42.350Z,6.83
2018-04-17T16:11:10.689Z,5.47
2018-04-17T16:13:38.256Z,4.47
2018-04-17T16:16:05.824Z,4.30
2018-04-17T16:18:33.394Z,3.73
2018-04-17T16:21:00.967Z,3.90
2018-04-17T16:23:29.310Z,4.17
2018-04-17T16:25:56.892Z,3.70
2018-04-17T16:28:24.472Z,4.30
2018-04-17T16:30:52.164Z,4.33
2018-04-17T16:33:19.749Z,3.53
2018-04-17T16:35:47.317Z,4.03
2018-04-17T16:38:15.001Z,3.77
2018-04-17T16:40:43.327Z,3.80
2018-04-17T16:43:10.896Z,3.60
2018-04-17T16:45:38.564Z,3.97
2018-04-17T16:48:06.193Z,3.80
2018-04-17T16:50:33.822Z,3.90
2018-04-17T16:53:02.175Z,3.87
2018-04-17T16:55:29.764Z,3.60
2018-04-17T16:57:58.097Z,3.07
2018-04-17T17:00:25.703Z,3.60
2018-04-17T17:02:53.278Z,3.13
2018-04-17T17:05:21.646Z,3.07
2018-04-17T17:07:49.960Z,3.33
2018-04-17T17:10:17.569Z,3.30
2018-04-17T17:12:49.502Z,2.93
2018-04-17T17:15:17.065Z,2.90
2018-04-17T17:17:44.620Z,2.80
2018-04-17T17:20:12.184Z,3.27
2018-04-17T17:22:39.740Z,2.80
2018-04-17T17:25:07.315Z,3.13
2018-04-17T17:27:34.870Z,3.43
2018-04-17T17:30:02.436Z,2.87
2018-04-17T17:32:30.023Z,3.30
2018-04-17T17:34:57.621Z,2.90
2018-04-17T17:37:25.187Z,3.30
2018-04-17T17:39:54.281Z,3.60
2018-04-17T17:42:21.861Z,3.57
2018-04-17T17:44:49.459Z,4.10
2018-04-17T17:47:17.817Z,3.50
2018-04-17T17:49:45.388Z,3.73
2018-04-17T17:52:12.968Z,3.63
2018-04-17T17:54:41.312Z,3.67
2018-04-17T17:57:08.884Z,3.90
2018-04-17T17:59:37.248Z,3.43
2018-04-17T18:02:04.816Z,4.07
2018-04-17T18:04:32.393Z,3.87
2018-04-17T18:07:00.823Z,6.17
2018-04-17T18:09:28.502Z,6.50
2018-04-17T18:11:56.097Z,4.23
2018-04-17T18:14:24.418Z,4.00
2018-04-17T18:16:52.031Z,4.70
2018-04-17T18:19:19.626Z,4.23
2018-04-17T18:21:47.215Z,4.00
2018-04-17T18:24:15.902Z,5.73
2018-04-17T18:26:43.684Z,4.97
2018-04-17T18:29:11.252Z,6.10
2018-04-17T18:31:38.799Z,4.50
2018-04-17T18:34:06.377Z,4.50
2018-04-17T18:36:33.948Z,4.43
2018-04-17T18:39:01.515Z,4.73
2018-04-17T18:41:29.826Z,4.67
2018-04-17T18:43:57.391Z,4.30
2018-04-17T18:46:24.968Z,4.23
2018-04-17T18:48:52.568Z,4.93
2018-04-17T18:51:20.892Z,4.47
2018-04-17T18:53:48.499Z,4.43
2018-04-17T18:56:21.178Z,4.20
2018-04-17T18:58:52.080Z,4.90
2018-04-17T19:01:19.881Z,5.00
2018-04-17T19:03:47.428Z,5.33
2018-04-17T19:06:17.273Z,4.60
2018-04-17T19:08:45.609Z,5.10
2018-04-17T19:11:13.168Z,5.20
2018-04-17T19:13:40.744Z,5.60
2018-04-17T19:16:08.323Z,5.40
2018-04-17T19:18:36.662Z,5.07
2018-04-17T19:21:04.243Z,5.40
2018-04-17T19:23:31.861Z,5.10
2018-04-17T19:25:59.513Z,5.57
2018-04-17T19:28:27.738Z,5.20
2018-04-17T19:30:55.345Z,5.13
2018-04-17T19:33:22.888Z,5.57
2018-04-17T19:35:51.209Z,4.97
2018-04-17T19:38:18.764Z,5.03
2018-04-17T19:40:46.329Z,4.83
2018-04-17T19:43:13.888Z,5.10
2018-04-17T19:45:42.304Z,4.73
2018-04-17T19:48:09.861Z,4.80
2018-04-17T19:50:37.420Z,4.67
2018-04-17T19:53:04.997Z,4.83
2018-04-17T19:55:33.415Z,4.70
2018-04-17T19:58:00.988Z,4.90
2018-04-17T20:00:28.608Z,5.60
2018-04-17T20:02:57.004Z,5.00
2018-04-17T20:05:25.324Z,5.10
2018-04-17T20:07:53.007Z,5.13
2018-04-17T20:10:20.557Z,5.17
2018-04-17T20:12:48.245Z,5.93
2018-04-17T20:15:17.433Z,5.67
2018-04-17T20:17:45.016Z,5.47
2018-04-17T20:20:13.325Z,5.10
2018-04-17T20:22:40.883Z,5.17
2018-04-17T20:25:08.648Z,4.80
2018-04-17T20:27:37.148Z,5.00
2018-04-17T20:30:04.811Z,6.60
2018-04-17T20:32:32.368Z,7.43
2018-04-17T20:35:00.545Z,7.07
2018-04-17T20:37:28.122Z,9.80
2018-04-17T20:39:55.675Z,7.60
2018-04-17T20:42:23.236Z,7.00
2018-04-17T20:44:50.810Z,6.50
2018-04-17T20:47:18.392Z,6.00
2018-04-17T20:49:46.741Z,5.93
2018-04-17T20:52:14.304Z,5.27
2018-04-17T20:54:41.868Z,5.80
2018-04-17T20:57:09.430Z,6.53
2018-04-17T20:59:37.088Z,5.80
2018-04-17T21:02:06.620Z,6.27
2018-04-17T21:04:34.952Z,5.90
2018-04-17T21:07:02.528Z,5.80
2018-04-17T21:09:30.149Z,6.33
2018-04-17T21:11:57.739Z,6.37
2018-04-17T21:14:25.345Z,6.10
2018-04-17T21:16:53.679Z,5.90
2018-04-17T21:19:21.262Z,6.33
2018-04-17T21:21:49.454Z,6.40
2018-04-17T21:24:17.004Z,5.87
2018-04-17T21:26:44.739Z,5.93
2018-04-17T21:29:12.458Z,5.77
2018-04-17T21:31:40.987Z,5.63
2018-04-17T21:34:08.562Z,5.83
2018-04-17T21:36:36.120Z,6.03
2018-04-17T21:39:03.670Z,5.23
2018-04-17T21:41:31.304Z,5.60
2018-04-17T21:43:59.575Z,5.90
2018-04-17T21:46:27.159Z,6.00
2018-04-17T21:48:54.704Z,5.77
2018-04-17T21:51:22.274Z,5.80
2018-04-17T21:53:49.849Z,5.40
2018-04-17T21:56:17.416Z,5.17
2018-04-17T21:58:44.984Z,5.50
2018-04-17T22:01:12.529Z,5.50
2018-04-17T22:03:40.983Z,5.50
2018-04-17T22:06:08.552Z,5.37
2018-04-17T22:08:36.263Z,4.80
2018-04-17T22:11:04.624Z,4.90
2018-04-17T22:13:32.236Z,5.00
2018-04-17T22:15:59.767Z,5.00
2018-04-17T22:18:27.395Z,5.20
2018-04-17T22:20:54.951Z,5.70
2018-04-17T22:23:22.514Z,5.07
2018-04-17T22:25:50.057Z,4.80
2018-04-17T22:28:17.628Z,5.00
2018-04-17T22:30:45.178Z,5.27
2018-04-17T22:33:12.757Z,5.17
2018-04-17T22:35:40.293Z,4.80
2018-04-17T22:38:07.872Z,5.07
2018-04-17T22:40:35.406Z,5.17
2018-04-17T22:43:02.959Z,4.50
2018-04-17T22:45:30.537Z,5.30
2018-04-17T22:47:58.091Z,5.10
2018-04-17T22:50:25.781Z,5.23
2018-04-17T22:52:53.420Z,4.73
2018-04-17T22:55:21.000Z,5.13
2018-04-17T22:57:48.559Z,5.27
2018-04-17T23:00:16.125Z,4.80
2018-04-17T23:02:43.672Z,4.50
2018-04-17T23:05:11.252Z,5.33
2018-04-17T23:07:38.792Z,5.00
2018-04-17T23:10:06.372Z,5.57
2018-04-17T23:12:34.700Z,4.63
2018-04-17T23:15:02.264Z,5.00
2018-04-17T23:17:29.821Z,5.37
2018-04-17T23:19:57.395Z,5.30
2018-04-17T23:22:24.947Z,5.13
2018-04-17T23:24:52.560Z,5.17
2018-04-17T23:27:20.880Z,4.93
2018-04-17T23:29:48.421Z,5.03
2018-04-17T23:32:16.009Z,5.17
2018-04-17T23:34:43.695Z,5.30
2018-04-17T23:37:11.858Z,5.20
2018-04-17T23:39:39.412Z,5.27
2018-04-17T23:42:06.992Z,5.37
2018-04-17T23:44:34.537Z,5.40
2018-04-17T23:47:02.106Z,5.20
2018-04-17T23:49:29.660Z,5.70
2018-04-17T23:51:57.223Z,5.80
2018-04-17T23:54:24.767Z,5.20
2018-04-17T23:56:52.339Z,5.30
2018-04-17T23:59:19.887Z,5.47
